createdAt,value
2022-08-22T00:01:11.916Z,186.88
2022-08-22T00:03:00.024Z,183.23
2022-08-22T00:04:14.287Z,179.57
2022-08-22T00:07:09.218Z,194.10
2022-08-22T00:09:46.519Z,183.77
2022-08-22T00:12:32.627Z,177.57
2022-08-22T00:15:12.747Z,193.35
2022-08-22T00:18:10.827Z,173.88
2022-08-22T00:21:03.402Z,168.77
2022-08-22T00:24:09.257Z,165.88
2022-08-22T00:26:59.899Z,191.75
2022-08-22T00:29:52.671Z,176.02
2022-08-22T00:32:48.791Z,181.00
2022-08-22T00:35:45.144Z,167.60
2022-08-22T00:38:29.311Z,175.93
2022-08-22T00:41:17.684Z,182.07
2022-08-22T00:44:11.837Z,173.60
2022-08-22T00:47:16.291Z,167.63
2022-08-22T00:50:01.589Z,192.77
2022-08-22T00:53:27.597Z,164.93
2022-08-22T00:56:15.141Z,166.63
2022-08-22T00:59:08.512Z,173.97
2022-08-22T01:02:27.954Z,172.57
2022-08-22T01:04:57.455Z,160.10
2022-08-22T01:07:37.791Z,180.60
2022-08-22T01:10:31.986Z,163.82
2022-08-22T01:13:19.795Z,181.95
2022-08-22T01:15:50.087Z,161.98
2022-08-22T01:18:42.237Z,187.65
2022-08-22T01:21:30.254Z,173.63
2022-08-22T01:24:25.104Z,160.40
2022-08-22T01:27:12.653Z,184.50
2022-08-22T01:29:42.250Z,181.98
2022-08-22T01:32:39.607Z,169.68
2022-08-22T01:35:34.218Z,194.25
2022-08-22T01:38:41.512Z,178.73
2022-08-22T01:41:30.141Z,165.02
2022-08-22T01:44:08.998Z,173.75
2022-08-22T01:46:54.547Z,170.38
2022-08-22T01:49:29.450Z,157.00
2022-08-22T01:52:08.014Z,168.35
2022-08-22T01:54:43.272Z,169.88
2022-08-22T01:57:10.650Z,173.43
2022-08-22T01:59:45.791Z,154.77
2022-08-22T02:02:34.947Z,160.30
2022-08-22T02:05:11.076Z,172.82
2022-08-22T02:07:48.269Z,171.07
2022-08-22T02:11:04.518Z,164.20
2022-08-22T02:13:49.437Z,164.50
2022-08-22T02:16:30.019Z,159.03
2022-08-22T02:19:08.652Z,177.03
2022-08-22T02:21:44.890Z,177.50
2022-08-22T02:24:26.570Z,182.15
2022-08-22T02:27:15.923Z,166.63
2022-08-22T02:29:50.570Z,171.43
2022-08-22T02:32:44.871Z,169.85
2022-08-22T02:35:37.647Z,195.37
2022-08-22T02:38:27.630Z,188.33
2022-08-22T02:41:23.318Z,171.88
2022-08-22T02:43:53.128Z,182.35
2022-08-22T02:46:28.547Z,181.15
2022-08-22T02:49:13.026Z,186.73
2022-08-22T02:51:55.086Z,157.48
2022-08-22T02:54:41.737Z,161.77
2022-08-22T02:57:20.052Z,197.50
2022-08-22T03:00:31.772Z,176.02
2022-08-22T03:03:24.819Z,173.73
2022-08-22T03:06:01.728Z,189.32
2022-08-22T03:08:47.443Z,173.40
2022-08-22T03:11:26.217Z,171.80
2022-08-22T03:14:18.059Z,170.77
2022-08-22T03:17:08.529Z,185.80
2022-08-22T03:20:05.171Z,174.30
2022-08-22T03:22:44.602Z,172.07
2022-08-22T03:25:26.947Z,175.18
2022-08-22T03:28:02.662Z,177.02
2022-08-22T03:31:00.092Z,159.27
2022-08-22T03:33:31.393Z,169.73
2022-08-22T03:36:15.504Z,166.00
2022-08-22T03:39:04.226Z,171.32
2022-08-22T03:41:41.924Z,162.38
2022-08-22T03:44:42.119Z,161.02
2022-08-22T03:47:34.129Z,162.65
2022-08-22T03:50:15.183Z,159.82
2022-08-22T03:53:34.534Z,168.20
2022-08-22T03:56:19.381Z,152.35
2022-08-22T03:59:09.990Z,158.43
2022-08-22T04:02:04.500Z,163.33
2022-08-22T04:05:33.832Z,174.88
2022-08-22T04:08:25.992Z,189.60
2022-08-22T04:11:23.612Z,184.75
2022-08-22T04:14:04.267Z,177.07
2022-08-22T04:16:42.855Z,170.57
2022-08-22T04:19:18.707Z,179.45
2022-08-22T04:22:07.701Z,171.40
2022-08-22T04:25:08.153Z,182.50
2022-08-22T04:28:06.438Z,180.18
2022-08-22T04:30:36.354Z,174.98
2022-08-22T04:33:38.187Z,156.40
2022-08-22T04:36:17.966Z,164.43
2022-08-22T04:39:02.065Z,173.05
2022-08-22T04:41:37.978Z,185.18
2022-08-22T04:44:14.030Z,189.57
2022-08-22T04:46:57.027Z,174.33
2022-08-22T04:49:39.339Z,179.90
2022-08-22T04:52:20.951Z,180.97
2022-08-22T04:55:09.935Z,172.32
2022-08-22T04:58:17.380Z,186.70
2022-08-22T05:00:51.265Z,158.75
2022-08-22T05:03:21.335Z,160.35
2022-08-22T05:05:49.460Z,148.15
2022-08-22T05:08:22.863Z,159.88
2022-08-22T05:10:51.908Z,154.67
2022-08-22T05:13:33.179Z,151.85
2022-08-22T05:16:05.035Z,150.77
2022-08-22T05:18:45.456Z,157.65
2022-08-22T05:21:14.512Z,144.07
2022-08-22T05:23:48.241Z,141.85
2022-08-22T05:26:17.026Z,137.15
2022-08-22T05:28:52.929Z,144.65
2022-08-22T05:31:34.651Z,153.80
2022-08-22T05:34:06.883Z,140.10
2022-08-22T05:36:40.005Z,160.73
2022-08-22T05:39:20.454Z,163.00
2022-08-22T05:41:49.174Z,152.27
2022-08-22T05:44:22.818Z,137.10
2022-08-22T05:47:42.447Z,163.43
2022-08-22T05:50:28.434Z,154.65
2022-08-22T05:53:07.666Z,133.35
2022-08-22T05:55:52.397Z,150.90
2022-08-22T05:58:55.797Z,158.25
2022-08-22T06:01:43.659Z,141.20
2022-08-22T06:04:33.526Z,132.07
2022-08-22T06:07:03.150Z,157.73
2022-08-22T06:09:59.111Z,141.73
2022-08-22T06:12:43.979Z,157.35
2022-08-22T06:15:20.961Z,135.47
2022-08-22T06:17:52.404Z,164.73
2022-08-22T06:20:28.779Z,155.70
2022-08-22T06:22:59.911Z,156.23
2022-08-22T06:25:32.303Z,137.50
2022-08-22T06:28:04.339Z,142.23
2022-08-22T06:30:32.443Z,152.45
2022-08-22T06:33:12.604Z,136.13
2022-08-22T06:36:08.747Z,133.65
2022-08-22T06:39:26.472Z,156.18
2022-08-22T06:42:05.547Z,127.65
2022-08-22T06:44:39.132Z,154.02
2022-08-22T06:47:53.675Z,134.82
2022-08-22T06:50:33.469Z,156.15
2022-08-22T06:53:11.796Z,142.63
2022-08-22T06:55:43.446Z,150.55
2022-08-22T06:58:18.097Z,138.82
2022-08-22T07:00:53.573Z,139.25
2022-08-22T07:03:38.247Z,136.40
2022-08-22T07:06:05.730Z,150.13
2022-08-22T07:08:39.056Z,140.50
2022-08-22T07:11:19.444Z,154.15
2022-08-22T07:13:56.502Z,177.80
2022-08-22T07:17:03.561Z,150.75
2022-08-22T07:19:33.192Z,161.50
2022-08-22T07:22:14.847Z,168.52
2022-08-22T07:24:52.454Z,169.02
2022-08-22T07:27:31.882Z,148.23
2022-08-22T07:30:13.036Z,152.90
2022-08-22T07:33:21.023Z,138.05
2022-08-22T07:35:57.854Z,153.38
2022-08-22T07:38:35.025Z,143.10
2022-08-22T07:41:22.345Z,156.02
2022-08-22T07:43:49.103Z,131.93
2022-08-22T07:46:27.415Z,146.00
2022-08-22T07:49:16.454Z,152.65
2022-08-22T07:51:56.614Z,158.60
2022-08-22T07:54:47.935Z,144.55
2022-08-22T07:57:36.586Z,148.63
2022-08-22T08:00:15.857Z,143.98
2022-08-22T08:02:52.118Z,140.38
2022-08-22T08:05:22.821Z,142.90
2022-08-22T08:07:53.352Z,163.10
2022-08-22T08:10:27.456Z,151.30
2022-08-22T08:13:02.579Z,148.30
2022-08-22T08:15:33.389Z,153.02
2022-08-22T08:18:05.433Z,132.07
2022-08-22T08:20:35.912Z,149.90
2022-08-22T08:23:06.572Z,129.27
2022-08-22T08:25:53.430Z,136.77
2022-08-22T08:28:34.353Z,161.95
2022-08-22T08:31:20.734Z,153.60
2022-08-22T08:33:50.511Z,143.70
2022-08-22T08:36:36.732Z,161.30
2022-08-22T08:39:16.282Z,155.77
2022-08-22T08:42:15.589Z,161.00
2022-08-22T08:45:03.624Z,159.40
2022-08-22T08:48:02.176Z,154.93
2022-08-22T08:50:56.738Z,150.03
2022-08-22T08:54:11.761Z,142.77
2022-08-22T08:57:12.416Z,157.38
2022-08-22T08:59:45.595Z,179.93
2022-08-22T09:02:25.692Z,151.30
2022-08-22T09:05:35.455Z,132.60
2022-08-22T09:08:24.859Z,115.15
2022-08-22T09:11:14.415Z,125.15
2022-08-22T09:13:50.094Z,99.78
2022-08-22T09:16:38.115Z,104.47
2022-08-22T09:19:35.469Z,116.33
2022-08-22T09:22:14.638Z,113.85
2022-08-22T09:24:42.032Z,123.50
2022-08-22T09:27:22.537Z,122.95
2022-08-22T09:30:05.599Z,118.97
2022-08-22T09:32:39.034Z,144.38
2022-08-22T09:35:16.863Z,144.45
2022-08-22T09:38:00.631Z,133.93
2022-08-22T09:40:50.022Z,121.38
2022-08-22T09:43:27.604Z,124.27
2022-08-22T09:46:36.901Z,134.93
2022-08-22T09:49:05.598Z,119.05
2022-08-22T09:52:15.253Z,136.73
2022-08-22T09:55:01.184Z,127.23
2022-08-22T09:57:43.701Z,126.70
2022-08-22T10:00:31.996Z,132.70
2022-08-22T10:03:06.360Z,130.93
2022-08-22T10:05:43.880Z,132.82
2022-08-22T10:08:20.190Z,122.20
2022-08-22T10:11:03.122Z,128.50
2022-08-22T10:13:57.328Z,140.73
2022-08-22T10:16:45.960Z,133.43
2022-08-22T10:19:41.838Z,127.72
2022-08-22T10:22:29.921Z,128.98
2022-08-22T10:25:07.534Z,135.20
2022-08-22T10:27:40.212Z,129.33
2022-08-22T10:30:11.760Z,144.93
2022-08-22T10:32:50.319Z,128.60
2022-08-22T10:35:19.917Z,135.40
2022-08-22T10:38:21.007Z,138.15
2022-08-22T10:41:23.028Z,143.02
2022-08-22T10:44:03.916Z,141.55
2022-08-22T10:46:36.486Z,142.23
2022-08-22T10:49:32.342Z,131.48
2022-08-22T10:52:14.720Z,152.93
2022-08-22T10:54:51.746Z,140.43
2022-08-22T10:57:42.430Z,150.13
2022-08-22T11:00:28.214Z,151.70
2022-08-22T11:03:02.751Z,153.00
2022-08-22T11:05:41.335Z,138.23
2022-08-22T11:08:28.399Z,159.82
2022-08-22T11:11:07.823Z,141.95
2022-08-22T11:13:43.663Z,135.18
2022-08-22T11:16:36.626Z,160.25
2022-08-22T11:19:37.703Z,157.00
2022-08-22T11:22:46.319Z,141.65
2022-08-22T11:25:35.871Z,144.80
2022-08-22T11:28:24.115Z,157.80
2022-08-22T11:31:16.110Z,160.90
2022-08-22T11:34:06.496Z,185.80
2022-08-22T11:37:15.699Z,168.57
2022-08-22T11:40:04.678Z,167.75
2022-08-22T11:42:47.481Z,165.52
2022-08-22T11:45:21.531Z,160.55
2022-08-22T11:48:13.857Z,173.30
2022-08-22T11:51:30.023Z,169.48
2022-08-22T11:54:31.190Z,179.93
2022-08-22T11:57:09.771Z,167.95
2022-08-22T11:59:43.129Z,167.90
2022-08-22T12:02:28.566Z,177.40
2022-08-22T12:05:09.322Z,171.53
2022-08-22T12:07:50.622Z,154.70
2022-08-22T12:10:29.679Z,158.73
2022-08-22T12:13:02.685Z,164.95
2022-08-22T12:15:46.135Z,165.32
2022-08-22T12:19:00.999Z,171.70
2022-08-22T12:21:38.983Z,161.63
2022-08-22T12:24:26.171Z,174.32
2022-08-22T12:27:28.850Z,165.25
2022-08-22T12:30:20.862Z,169.98
2022-08-22T12:33:10.669Z,174.60
2022-08-22T12:36:02.753Z,174.30
2022-08-22T12:38:40.513Z,167.85
2022-08-22T12:41:34.770Z,168.35
2022-08-22T12:44:17.696Z,164.90
2022-08-22T12:47:23.183Z,161.10
2022-08-22T12:50:13.869Z,166.07
2022-08-22T12:53:00.504Z,153.40
2022-08-22T12:55:51.707Z,164.18
2022-08-22T12:58:42.779Z,159.43
2022-08-22T13:01:11.663Z,149.73
2022-08-22T13:03:53.685Z,138.55
2022-08-22T13:06:48.869Z,171.90
2022-08-22T13:09:33.067Z,158.27
2022-08-22T13:12:37.604Z,148.70
2022-08-22T13:15:25.764Z,167.20
2022-08-22T13:17:54.406Z,157.13
2022-08-22T13:20:27.812Z,181.57
2022-08-22T13:22:55.625Z,187.68
2022-08-22T13:25:25.464Z,193.60
2022-08-22T13:28:03.427Z,177.97
2022-08-22T13:30:40.083Z,201.88
2022-08-22T13:33:11.100Z,183.07
2022-08-22T13:36:02.946Z,196.90
2022-08-22T13:38:39.860Z,207.27
2022-08-22T13:41:29.643Z,189.30
2022-08-22T13:44:22.212Z,192.85
2022-08-22T13:47:13.259Z,180.30
2022-08-22T13:49:47.998Z,187.20
2022-08-22T13:52:30.406Z,199.25
2022-08-22T13:55:27.647Z,208.98
2022-08-22T13:58:26.214Z,192.60
2022-08-22T14:01:01.934Z,187.32
2022-08-22T14:03:40.288Z,187.80
2022-08-22T14:06:37.990Z,193.07
2022-08-22T14:09:15.232Z,183.87
2022-08-22T14:11:54.011Z,181.13
2022-08-22T14:14:30.232Z,189.15
2022-08-22T14:16:59.371Z,198.07
2022-08-22T14:19:38.265Z,186.32
2022-08-22T14:22:31.767Z,201.77
2022-08-22T14:25:07.217Z,188.90
2022-08-22T14:27:39.668Z,185.82
2022-08-22T14:30:26.376Z,197.23
2022-08-22T14:33:09.173Z,199.32
2022-08-22T14:35:53.093Z,200.43
2022-08-22T14:38:32.716Z,194.27
2022-08-22T14:41:05.440Z,201.88
2022-08-22T14:43:32.230Z,187.75
2022-08-22T14:46:08.694Z,181.23
2022-08-22T14:48:50.042Z,198.13
2022-08-22T14:51:25.613Z,200.38
2022-08-22T14:53:53.265Z,204.55
2022-08-22T14:56:27.742Z,195.40
2022-08-22T14:58:57.331Z,195.93
2022-08-22T15:01:33.162Z,184.02
2022-08-22T15:04:18.894Z,188.38
2022-08-22T15:06:58.554Z,194.30
2022-08-22T15:09:36.391Z,200.00
2022-08-22T15:12:21.430Z,189.48
2022-08-22T15:14:52.645Z,197.90
2022-08-22T15:17:39.547Z,196.68
2022-08-22T15:20:28.490Z,208.67
2022-08-22T15:23:03.005Z,203.57
2022-08-22T15:25:41.269Z,219.20
2022-08-22T15:28:14.063Z,205.05
2022-08-22T15:31:03.445Z,246.10
2022-08-22T15:33:35.840Z,227.18
2022-08-22T15:36:16.755Z,244.32
2022-08-22T15:38:48.021Z,253.55
2022-08-22T15:41:35.937Z,255.70
2022-08-22T15:44:14.818Z,262.73
2022-08-22T15:47:31.546Z,273.25
2022-08-22T15:50:26.874Z,263.37
2022-08-22T15:53:14.763Z,276.52
2022-08-22T15:56:06.728Z,269.20
2022-08-22T15:58:39.670Z,264.23
2022-08-22T16:01:18.906Z,304.67
2022-08-22T16:04:08.343Z,317.73
2022-08-22T16:06:43.890Z,333.80
2022-08-22T16:09:40.314Z,341.73
2022-08-22T16:12:24.111Z,355.57
2022-08-22T16:14:52.154Z,489.17
2022-08-22T16:17:25.101Z,393.38
2022-08-22T16:20:15.834Z,339.58
2022-08-22T16:22:58.747Z,337.93
2022-08-22T16:25:44.385Z,328.80
2022-08-22T16:28:36.183Z,328.55
2022-08-22T16:31:27.492Z,443.40
2022-08-22T16:33:58.314Z,425.45
2022-08-22T16:37:03.219Z,434.10
2022-08-22T16:40:00.949Z,448.40
2022-08-22T16:42:36.455Z,464.92
2022-08-22T16:45:05.496Z,545.30
2022-08-22T16:47:41.709Z,507.92
2022-08-22T16:50:25.802Z,519.03
2022-08-22T16:52:57.606Z,524.53
2022-08-22T16:55:30.372Z,481.77
2022-08-22T16:58:40.062Z,437.00
2022-08-22T17:01:27.515Z,424.65
2022-08-22T17:04:26.763Z,406.83
2022-08-22T17:07:31.243Z,568.20
2022-08-22T17:10:20.202Z,561.65
2022-08-22T17:13:06.235Z,446.60
2022-08-22T17:15:38.939Z,473.13
2022-08-22T17:18:38.831Z,447.52
2022-08-22T17:21:25.901Z,447.30
2022-08-22T17:24:32.411Z,425.90
2022-08-22T17:27:06.145Z,429.77
2022-08-22T17:30:06.971Z,474.50
2022-08-22T17:32:57.218Z,555.27
2022-08-22T17:35:38.636Z,691.60
2022-08-22T17:38:09.038Z,658.70
2022-08-22T17:40:51.419Z,999.90
2022-08-22T17:43:49.002Z,615.65
2022-08-22T17:46:21.958Z,822.78
2022-08-22T17:49:09.018Z,791.72
2022-08-22T17:51:57.058Z,809.60
2022-08-22T17:54:37.018Z,830.67
2022-08-22T17:57:22.092Z,729.47
2022-08-22T17:59:54.932Z,833.72
2022-08-22T18:02:32.794Z,944.90
2022-08-22T18:05:02.914Z,517.35
2022-08-22T18:07:30.666Z,461.67
2022-08-22T18:10:29.542Z,602.72
2022-08-22T18:13:07.200Z,642.90
2022-08-22T18:16:06.728Z,588.00
2022-08-22T18:18:37.619Z,474.17
2022-08-22T18:21:04.688Z,782.55
2022-08-22T18:23:42.393Z,772.58
2022-08-22T18:26:27.692Z,801.33
2022-08-22T18:29:05.282Z,332.45
2022-08-22T18:32:03.565Z,315.45
2022-08-22T18:34:30.946Z,223.57
2022-08-22T18:37:21.933Z,211.32
2022-08-22T18:40:01.891Z,211.97
2022-08-22T18:42:47.938Z,208.43
2022-08-22T18:45:17.523Z,193.95
2022-08-22T18:47:55.073Z,176.82
2022-08-22T18:50:34.183Z,178.43
2022-08-22T18:53:01.653Z,152.80
2022-08-22T18:55:56.047Z,163.43
2022-08-22T18:59:05.530Z,169.43
2022-08-22T19:02:08.366Z,165.23
2022-08-22T19:04:53.259Z,168.18
2022-08-22T19:07:32.086Z,217.38
2022-08-22T19:10:23.935Z,261.97
2022-08-22T19:12:53.793Z,265.83
2022-08-22T19:15:35.606Z,290.05
2022-08-22T19:18:20.430Z,377.90
2022-08-22T19:21:46.151Z,372.35
2022-08-22T19:24:35.363Z,339.55
2022-08-22T19:27:17.926Z,343.97
2022-08-22T19:29:44.676Z,334.03
2022-08-22T19:32:44.426Z,333.67
2022-08-22T19:35:28.671Z,330.00
2022-08-22T19:38:01.035Z,312.40
2022-08-22T19:40:46.192Z,330.73
2022-08-22T19:43:41.927Z,301.42
2022-08-22T19:46:12.702Z,284.95
2022-08-22T19:48:50.158Z,285.07
2022-08-22T19:51:21.133Z,330.10
2022-08-22T19:54:05.879Z,341.50
2022-08-22T19:56:38.456Z,289.55
2022-08-22T19:59:21.734Z,291.15
2022-08-22T20:02:16.663Z,282.10
2022-08-22T20:04:56.854Z,287.25
2022-08-22T20:07:29.523Z,204.57
2022-08-22T20:09:56.312Z,149.50
2022-08-22T20:12:29.977Z,132.90
2022-08-22T20:14:57.216Z,176.63
2022-08-22T20:17:24.971Z,191.65
2022-08-22T20:20:17.674Z,276.30
2022-08-22T20:23:02.875Z,259.20
2022-08-22T20:25:51.863Z,252.80
2022-08-22T20:28:24.930Z,267.83
2022-08-22T20:30:57.914Z,270.77
2022-08-22T20:33:35.451Z,273.30
2022-08-22T20:36:27.139Z,273.73
2022-08-22T20:39:00.010Z,258.67
2022-08-22T20:41:36.587Z,225.13
2022-08-22T20:44:28.707Z,234.80
2022-08-22T20:47:10.033Z,229.55
2022-08-22T20:49:49.990Z,283.27
2022-08-22T20:52:19.842Z,287.75
2022-08-22T20:55:16.385Z,330.23
2022-08-22T20:57:54.166Z,298.33
2022-08-22T21:00:27.438Z,272.48
2022-08-22T21:02:58.743Z,275.90
2022-08-22T21:05:44.247Z,282.42
2022-08-22T21:08:24.167Z,284.20
2022-08-22T21:11:17.690Z,254.57
2022-08-22T21:13:44.758Z,259.77
2022-08-22T21:16:17.851Z,252.73
2022-08-22T21:18:48.814Z,241.40
2022-08-22T21:21:27.246Z,258.70
2022-08-22T21:24:01.280Z,241.77
2022-08-22T21:26:36.773Z,252.38
2022-08-22T21:29:13.733Z,252.75
2022-08-22T21:31:46.749Z,248.82
2022-08-22T21:34:28.874Z,262.60
2022-08-22T21:37:01.887Z,255.82
2022-08-22T21:39:37.604Z,255.97
2022-08-22T21:42:04.976Z,257.70
2022-08-22T21:44:32.204Z,265.10
2022-08-22T21:47:30.409Z,263.10
2022-08-22T21:50:24.462Z,265.25
2022-08-22T21:52:54.774Z,266.15
2022-08-22T21:55:47.848Z,253.70
2022-08-22T21:58:32.625Z,261.08
2022-08-22T22:01:25.073Z,254.63
2022-08-22T22:03:54.267Z,248.00
2022-08-22T22:06:22.284Z,271.20
2022-08-22T22:08:50.373Z,266.50
2022-08-22T22:11:18.344Z,266.38
2022-08-22T22:13:46.027Z,252.20
2022-08-22T22:16:19.446Z,248.70
2022-08-22T22:18:47.315Z,254.10
2022-08-22T22:21:14.263Z,260.87
2022-08-22T22:23:42.212Z,254.40
2022-08-22T22:26:09.559Z,255.60
2022-08-22T22:28:40.669Z,264.95
2022-08-22T22:31:08.546Z,262.00
2022-08-22T22:33:39.151Z,281.23
2022-08-22T22:36:35.627Z,236.77
2022-08-22T22:39:05.415Z,224.10
2022-08-22T22:41:32.443Z,238.35
2022-08-22T22:44:00.743Z,235.93
2022-08-22T22:46:27.790Z,224.68
2022-08-22T22:48:56.627Z,240.73
2022-08-22T22:51:23.752Z,241.33
2022-08-22T22:53:50.623Z,228.20
2022-08-22T22:56:21.678Z,236.02
2022-08-22T22:58:49.535Z,249.95
2022-08-22T23:01:20.955Z,232.63
2022-08-22T23:03:48.905Z,228.30
2022-08-22T23:06:19.428Z,244.90
2022-08-22T23:08:47.416Z,232.00
2022-08-22T23:11:17.510Z,230.67
2022-08-22T23:13:44.518Z,174.32
2022-08-22T23:16:15.570Z,226.68
2022-08-22T23:18:43.791Z,228.95
2022-08-22T23:21:30.195Z,225.33
2022-08-22T23:23:59.654Z,223.80
2022-08-22T23:26:28.321Z,233.60
2022-08-22T23:28:56.660Z,226.93
2022-08-22T23:31:33.712Z,239.85
2022-08-22T23:34:10.270Z,230.82
2022-08-22T23:36:38.863Z,246.23
2022-08-22T23:39:08.036Z,239.73
2022-08-22T23:41:36.543Z,234.10
2022-08-22T23:44:05.686Z,252.25
2022-08-22T23:46:32.912Z,246.80
2022-08-22T23:49:04.778Z,267.77
2022-08-22T23:51:32.065Z,250.15
2022-08-22T23:53:59.901Z,250.77
2022-08-22T23:56:30.683Z,268.17
2022-08-22T23:58:59.299Z,267.02
